DFSCM EDDG-EDLW
Flight info
| Callsign | DFSCM |
|---|---|
| Flight time | 0h 20m |
| Altitude | 5000 |
| Route | DOMEG1W DOMEG DOMEG2A |
| Aircraft | C208/L-SDFGR/C |
Departure
| Time | 2026-04-17 12:45 |
|---|---|
| Airport | Münster Osnabrück Airport (EDDG) |
Arrival
| Time | 2026-04-17 13:05 |
|---|---|
| Airport | Dortmund Airport (EDLW) |
| Time | Latitude | Longitude | Altitude | Speed | Heading |
|---|---|---|---|---|---|
| 2026-04-17 12:32 | 52.13154 | 7.68314 | 168 ft | 0 kts | 270° |
| 2026-04-17 12:42 | 52.13154 | 7.68308 | 168 ft | 2 kts | 270° |
| 2026-04-17 12:42 | 52.13167 | 7.68277 | 167 ft | 6 kts | 345° |
| 2026-04-17 12:43 | 52.13197 | 7.68330 | 168 ft | 8 kts | 67° |
| 2026-04-17 12:43 | 52.13253 | 7.68321 | 168 ft | 10 kts | 337° |
| 2026-04-17 12:43 | 52.13321 | 7.68284 | 168 ft | 1 kts | 340° |
| 2026-04-17 12:44 | 52.13327 | 7.68280 | 168 ft | 2 kts | 340° |
| 2026-04-17 12:44 | 52.13355 | 7.68264 | 168 ft | 7 kts | 340° |
| 2026-04-17 12:44 | 52.13387 | 7.68117 | 166 ft | 31 kts | 250° |
| 2026-04-17 12:44 | 52.13219 | 7.67341 | 205 ft | 103 kts | 251° |
| 2026-04-17 12:45 | 52.12958 | 7.66198 | 540 ft | 113 kts | 249° |
| 2026-04-17 12:45 | 52.12656 | 7.64969 | 877 ft | 119 kts | 248° |
| 2026-04-17 12:45 | 52.12385 | 7.63595 | 1110 ft | 135 kts | 253° |
| 2026-04-17 12:45 | 52.12089 | 7.62081 | 1366 ft | 145 kts | 252° |
| 2026-04-17 12:46 | 52.11762 | 7.60492 | 1623 ft | 150 kts | 252° |
| 2026-04-17 12:46 | 52.11420 | 7.58867 | 1878 ft | 153 kts | 251° |
| 2026-04-17 12:46 | 52.11093 | 7.57312 | 2119 ft | 133 kts | 252° |
| 2026-04-17 12:46 | 52.10808 | 7.55977 | 2366 ft | 121 kts | 251° |
| 2026-04-17 12:47 | 52.10531 | 7.54679 | 2623 ft | 122 kts | 251° |
| 2026-04-17 12:47 | 52.10206 | 7.53412 | 2871 ft | 123 kts | 234° |
| 2026-04-17 12:47 | 52.09526 | 7.52590 | 3119 ft | 124 kts | 200° |
| 2026-04-17 12:47 | 52.08686 | 7.52375 | 3362 ft | 123 kts | 187° |
| 2026-04-17 12:48 | 52.07834 | 7.52232 | 3618 ft | 123 kts | 187° |
| 2026-04-17 12:48 | 52.06987 | 7.52085 | 3871 ft | 122 kts | 187° |
| 2026-04-17 12:48 | 52.06146 | 7.51942 | 4123 ft | 122 kts | 187° |
| 2026-04-17 12:48 | 52.05302 | 7.51796 | 4385 ft | 121 kts | 187° |
| 2026-04-17 12:49 | 52.04468 | 7.51655 | 4636 ft | 120 kts | 187° |
| 2026-04-17 12:49 | 52.03636 | 7.51513 | 4899 ft | 121 kts | 187° |
| 2026-04-17 12:49 | 52.02800 | 7.51369 | 5141 ft | 120 kts | 187° |
| 2026-04-17 12:49 | 52.01931 | 7.51220 | 5214 ft | 132 kts | 188° |
| 2026-04-17 12:50 | 52.00974 | 7.51052 | 5220 ft | 143 kts | 187° |
| 2026-04-17 12:50 | 51.99961 | 7.51062 | 5212 ft | 150 kts | 172° |
| 2026-04-17 12:50 | 51.98926 | 7.51346 | 5215 ft | 151 kts | 173° |
| 2026-04-17 12:50 | 51.97880 | 7.51622 | 5213 ft | 153 kts | 173° |
| 2026-04-17 12:51 | 51.96818 | 7.51904 | 5217 ft | 156 kts | 173° |
| 2026-04-17 12:51 | 51.95756 | 7.52185 | 5217 ft | 157 kts | 173° |
| 2026-04-17 12:51 | 51.94662 | 7.52474 | 5219 ft | 158 kts | 173° |
| 2026-04-17 12:51 | 51.93592 | 7.52756 | 5215 ft | 158 kts | 173° |
| 2026-04-17 12:52 | 51.92509 | 7.53044 | 5221 ft | 158 kts | 173° |
| 2026-04-17 12:52 | 51.91426 | 7.53330 | 5219 ft | 157 kts | 173° |
| 2026-04-17 12:52 | 51.90343 | 7.53616 | 5223 ft | 158 kts | 173° |
| 2026-04-17 12:52 | 51.89255 | 7.53903 | 5220 ft | 158 kts | 173° |
| 2026-04-17 12:53 | 51.88170 | 7.54190 | 5219 ft | 159 kts | 173° |
| 2026-04-17 12:53 | 51.87079 | 7.54477 | 5217 ft | 159 kts | 173° |
| 2026-04-17 12:53 | 51.85990 | 7.54765 | 5219 ft | 158 kts | 173° |
| 2026-04-17 12:53 | 51.84903 | 7.55052 | 5221 ft | 158 kts | 173° |
| 2026-04-17 12:54 | 51.83820 | 7.55337 | 5222 ft | 158 kts | 173° |
| 2026-04-17 12:54 | 51.82740 | 7.55621 | 5224 ft | 158 kts | 173° |
| 2026-04-17 12:54 | 51.81654 | 7.55906 | 5224 ft | 158 kts | 173° |
| 2026-04-17 12:54 | 51.80581 | 7.56189 | 5226 ft | 158 kts | 173° |
| 2026-04-17 12:55 | 51.79496 | 7.56475 | 5216 ft | 158 kts | 173° |
| 2026-04-17 12:55 | 51.78417 | 7.56757 | 5219 ft | 157 kts | 173° |
| 2026-04-17 12:55 | 51.77337 | 7.57041 | 5217 ft | 157 kts | 173° |
| 2026-04-17 12:55 | 51.76256 | 7.57325 | 5221 ft | 157 kts | 173° |
| 2026-04-17 12:56 | 51.75174 | 7.57609 | 5223 ft | 157 kts | 173° |
| 2026-04-17 12:56 | 51.74096 | 7.57893 | 5225 ft | 157 kts | 173° |
| 2026-04-17 12:56 | 51.73017 | 7.58175 | 5221 ft | 157 kts | 173° |
| 2026-04-17 12:56 | 51.71943 | 7.58494 | 5212 ft | 158 kts | 162° |
| 2026-04-17 12:57 | 51.71125 | 7.59665 | 5222 ft | 162 kts | 128° |
| 2026-04-17 12:57 | 51.70490 | 7.61210 | 5066 ft | 169 kts | 128° |
| 2026-04-17 12:57 | 51.69807 | 7.62787 | 4890 ft | 173 kts | 129° |
| 2026-04-17 12:57 | 51.69102 | 7.64357 | 4713 ft | 173 kts | 129° |
| 2026-04-17 12:58 | 51.68401 | 7.65908 | 4531 ft | 173 kts | 129° |
| 2026-04-17 12:58 | 51.67692 | 7.67476 | 4353 ft | 173 kts | 129° |
| 2026-04-17 12:58 | 51.66980 | 7.69050 | 4174 ft | 174 kts | 129° |
| 2026-04-17 12:58 | 51.66270 | 7.70623 | 3997 ft | 174 kts | 129° |
| 2026-04-17 12:59 | 51.65554 | 7.72207 | 3819 ft | 176 kts | 129° |
| 2026-04-17 12:59 | 51.64822 | 7.73820 | 3539 ft | 180 kts | 128° |
| 2026-04-17 12:59 | 51.64079 | 7.75461 | 3260 ft | 182 kts | 129° |
| 2026-04-17 12:59 | 51.63332 | 7.77111 | 3008 ft | 181 kts | 128° |
| 2026-04-17 13:00 | 51.62619 | 7.78682 | 2997 ft | 167 kts | 128° |
| 2026-04-17 13:00 | 51.61952 | 7.80157 | 2995 ft | 158 kts | 128° |
| 2026-04-17 13:00 | 51.61304 | 7.81544 | 2998 ft | 153 kts | 135° |
| 2026-04-17 13:00 | 51.60388 | 7.82284 | 3008 ft | 148 kts | 174° |
| 2026-04-17 13:01 | 51.59431 | 7.81963 | 3010 ft | 141 kts | 218° |
| 2026-04-17 13:01 | 51.58973 | 7.81238 | 3001 ft | 140 kts | 237° |
| 2026-04-17 13:01 | 51.58434 | 7.79904 | 2877 ft | 144 kts | 239° |
| 2026-04-17 13:01 | 51.57911 | 7.78511 | 2689 ft | 147 kts | 241° |
| 2026-04-17 13:02 | 51.57390 | 7.77077 | 2489 ft | 150 kts | 241° |
| 2026-04-17 13:02 | 51.56713 | 7.75143 | 2215 ft | 151 kts | 243° |
| 2026-04-17 13:02 | 51.56210 | 7.73648 | 1943 ft | 152 kts | 245° |
| 2026-04-17 13:02 | 51.55894 | 7.72648 | 1860 ft | 145 kts | 244° |
| 2026-04-17 13:03 | 51.55414 | 7.71294 | 1741 ft | 138 kts | 241° |
| 2026-04-17 13:03 | 51.54917 | 7.69984 | 1589 ft | 136 kts | 240° |
| 2026-04-17 13:03 | 51.54480 | 7.68704 | 1278 ft | 118 kts | 244° |
| 2026-04-17 13:03 | 51.54094 | 7.67627 | 1164 ft | 109 kts | 243° |
| 2026-04-17 13:04 | 51.53714 | 7.66585 | 1010 ft | 105 kts | 244° |
| 2026-04-17 13:04 | 51.53393 | 7.65625 | 907 ft | 94 kts | 244° |
| 2026-04-17 13:04 | 51.53070 | 7.64722 | 787 ft | 93 kts | 246° |
| 2026-04-17 13:04 | 51.52743 | 7.63827 | 638 ft | 93 kts | 242° |
| 2026-04-17 13:05 | 51.52431 | 7.62923 | 545 ft | 93 kts | 245° |
| 2026-04-17 13:05 | 51.52113 | 7.62020 | 428 ft | 92 kts | 245° |
| 2026-04-17 13:05 | 51.51841 | 7.61244 | 418 ft | 71 kts | 244° |
| 2026-04-17 13:05 | 51.51631 | 7.60688 | 421 ft | 36 kts | 231° |
| 2026-04-17 13:06 | 51.51528 | 7.60663 | 420 ft | 20 kts | 108° |
| 2026-04-17 13:06 | 51.51529 | 7.60709 | 420 ft | 0 kts | 81° |
| 2026-04-17 13:07 | 51.51530 | 7.60711 | 421 ft | 2 kts | 81° |
| 2026-04-17 13:08 | 51.51556 | 7.60876 | 422 ft | 22 kts | 74° |
| 2026-04-17 13:08 | 51.51550 | 7.61056 | 426 ft | 16 kts | 160° |
| 2026-04-17 13:08 | 51.51478 | 7.60964 | 434 ft | 15 kts | 240° |
| 2026-04-17 13:08 | 51.51425 | 7.60810 | 435 ft | 16 kts | 240° |
| 2026-04-17 13:09 | 51.51374 | 7.60667 | 441 ft | 14 kts | 239° |
| 2026-04-17 13:09 | 51.51313 | 7.60496 | 443 ft | 26 kts | 242° |
| 2026-04-17 13:09 | 51.51219 | 7.60227 | 449 ft | 24 kts | 240° |
| 2026-04-17 13:09 | 51.51154 | 7.60183 | 459 ft | 9 kts | 121° |
| 2026-04-17 13:10 | 51.51186 | 7.60279 | 457 ft | 14 kts | 51° |
| 2026-04-17 13:10 | 51.51229 | 7.60409 | 456 ft | 8 kts | 96° |
| 2026-04-17 13:10 | 51.51220 | 7.60455 | 461 ft | 0 kts | 105° |